WetterOnline ( http://www.wetteronline.de )

Wetter aktuell Ohrum

Aktuelles Wetter: Ummendorf (163m)

6-stündlich | Neueste Meldungen
Ortszeit Temperatur Wetter
Do, 25.05. 20:00 18.4° C wolkig
Do, 25.05. 14:00 15.0° C bewölkt
Do, 25.05. 8:00 11.2° C leicht bewölkt
Do, 25.05. 2:00 10.0° C leicht bewölkt
Ortszeit Temperatur Wetter
Do, 25.05. 20:00 18.4° C wolkig
Do, 25.05. 19:30 17.9° C bewölkt
Do, 25.05. 19:00 17.9° C bewölkt
Do, 25.05. 18:30 17.5° C bewölkt
Do, 25.05. 18:00 17.8° C bewölkt
Do, 25.05. 17:30 18.0° C bewölkt
Ortszeit Relative Feuchte Sichtweite
Do, 25.05. 20:00 65% 65 km
Do, 25.05. 14:00 73% 17 km
Do, 25.05. 8:00 90% 10 km
Do, 25.05. 2:00 89% 40 km
Ortszeit Relative Feuchte Sichtweite
Do, 25.05. 20:00 65% 65 km
Do, 25.05. 19:30 69% 65 km
Do, 25.05. 19:00 68% 50 km
Do, 25.05. 18:30 68% 45 km
Do, 25.05. 18:00 66% 35 km
Do, 25.05. 17:30 65% 29 km
Ortszeit Niederschlagsmenge Niederschlagsart
Do, 25.05. 20:00 0.05 l/m2 in 12 Std. -
Do, 25.05. 14:00 0.05 l/m2 in 6 Std. Sprühregen
Do, 25.05. 8:00 0,0 l/m2 in 12 Std. -
Do, 25.05. 2:00 0,0 l/m2 in 6 Std. -
Ortszeit Niederschlagsmenge Niederschlagsart
Do, 25.05. 20:00 0,0 l/m2 in 1 Std. -
Do, 25.05. 19:30 keine Meldung -
Do, 25.05. 19:00 0,0 l/m2 in 1 Std. -
Do, 25.05. 18:30 keine Meldung -
Do, 25.05. 18:00 0,0 l/m2 in 1 Std. -
Do, 25.05. 17:30 keine Meldung -
Ortszeit Stärke Spitze Richtung
km/h Bft. km/h Grad Sektor
Do, 25.05. 20:00 11 2 39 330° NW
Do, 25.05. 14:00 22 4 36 300° NW
Do, 25.05. 8:00 19 3 26 280° W
Do, 25.05. 2:00 11 2 22 300° NW
Ortszeit Stärke Spitze Richtung
km/h Bft. km/h Grad Sektor
Do, 25.05. 20:00 11 2 31 330° NW
Do, 25.05. 19:30 22 4 32 280° W
Do, 25.05. 19:00 19 3 33 290° W
Do, 25.05. 18:30 20 4 33 290° W
Do, 25.05. 18:00 22 4 40 290° W
Do, 25.05. 17:30 24 4 39 280° W
Ortszeit Untergrenze Bedeckung Gattung
total tief tief mittel hoch
Do, 25.05. 20:00 1110 m 6/8 6/8 - - -
Do, 25.05. 14:00 600 m 7/8 7/8 - - -
Do, 25.05. 8:00 210 m 3/8 3/8 - - -
Do, 25.05. 2:00 690 m 4/8 4/8 - - -
Ortszeit Bedeckungsgrad in Achtel und Wolkenuntergrenze
Do, 25.05. 20:00 5(1110m) 6(1410m)
Do, 25.05. 19:30 5(1140m) 7(1470m)
Do, 25.05. 19:00 4(1110m) 6(1410m) 7(1500m)
Do, 25.05. 18:30 5(1110m) 7(1470m) 7(1500m)
Do, 25.05. 18:00 5(1140m) 7(1500m)
Do, 25.05. 17:30 5(1140m) 7(1380m)
Ortszeit Luftdruck NN (hPa) Tendenz (hPa in 3 Std.)
Do, 25.05. 20:00 1021 - 0,7
Do, 25.05. 14:00 1023 - 0,3
Do, 25.05. 8:00 1023 + 0,7
Do, 25.05. 2:00 1023 + 0,1
Ortszeit Luftdruck NN (hPa) Tendenz (hPa in 3 Std.)
Do, 25.05. 20:00 1021 - 0,7
Do, 25.05. 19:30 1021 - 0,9
Do, 25.05. 19:00 1021 - 0,9
Do, 25.05. 18:30 1021 - 1,0
Do, 25.05. 18:00 1021 - 1,2
Do, 25.05. 17:30 1022 - 1,3
Ortszeit Schneehöhe (cm)
Do, 25.05. 20:00 -
Do, 25.05. 14:00 -
Do, 25.05. 8:00 -
Do, 25.05. 2:00 -
Ortszeit Schneehöhe (cm)
Do, 25.05. 20:00 -
Do, 25.05. 19:30 -
Do, 25.05. 19:00 -
Do, 25.05. 18:30 -
Do, 25.05. 18:00 -
Do, 25.05. 17:30 -
Link zu dieser Seite / Seite empfehlen

Das Wetter in ...